sensor_id;sensor_type;location;lat;lon;timestamp;pressure;altitude;pressure_sealevel;temperature;humidity
22311;BME280;11323;49.610;11.016;2023-11-19T00:01:12;98183.31;;;7.03;78.66
22311;BME280;11323;49.610;11.016;2023-11-19T00:06:16;98181.25;;;7.05;78.72
22311;BME280;11323;49.610;11.016;2023-11-19T00:11:20;98179.66;;;7.04;78.94
22311;BME280;11323;49.610;11.016;2023-11-19T00:16:24;98160.81;;;6.99;79.44
22311;BME280;11323;49.610;11.016;2023-11-19T00:21:28;98167.41;;;6.96;79.28
22311;BME280;11323;49.610;11.016;2023-11-19T00:26:36;98162.47;;;7.00;78.78
22311;BME280;11323;49.610;11.016;2023-11-19T00:31:37;98154.63;;;7.05;79.50
22311;BME280;11323;49.610;11.016;2023-11-19T00:36:48;98141.44;;;6.92;79.31
22311;BME280;11323;49.610;11.016;2023-11-19T00:41:49;98128.94;;;6.92;79.42
22311;BME280;11323;49.610;11.016;2023-11-19T00:46:53;98119.25;;;6.98;79.33
22311;BME280;11323;49.610;11.016;2023-11-19T00:51:57;98120.28;;;6.97;79.99
22311;BME280;11323;49.610;11.016;2023-11-19T00:57:13;98122.94;;;6.97;79.80
22311;BME280;11323;49.610;11.016;2023-11-19T01:02:26;98122.56;;;6.93;79.67
22311;BME280;11323;49.610;11.016;2023-11-19T01:07:34;98120.88;;;6.99;79.70
22311;BME280;11323;49.610;11.016;2023-11-19T01:12:35;98114.75;;;6.98;79.93
22311;BME280;11323;49.610;11.016;2023-11-19T01:17:37;98112.88;;;6.99;79.88
22311;BME280;11323;49.610;11.016;2023-11-19T01:22:39;98124.00;;;6.96;79.99
22311;BME280;11323;49.610;11.016;2023-11-19T01:27:45;98107.56;;;6.99;80.34
22311;BME280;11323;49.610;11.016;2023-11-19T01:32:46;98107.56;;;6.99;79.64
22311;BME280;11323;49.610;11.016;2023-11-19T01:37:48;98093.22;;;7.00;80.29
22311;BME280;11323;49.610;11.016;2023-11-19T01:43:03;98075.59;;;6.99;79.87
22311;BME280;11323;49.610;11.016;2023-11-19T01:48:15;98070.28;;;6.99;80.00
22311;BME280;11323;49.610;11.016;2023-11-19T01:53:17;98055.88;;;7.06;80.45
22311;BME280;11323;49.610;11.016;2023-11-19T01:58:19;98049.72;;;7.06;80.26
22311;BME280;11323;49.610;11.016;2023-11-19T02:03:20;98043.53;;;7.12;80.01
22311;BME280;11323;49.610;11.016;2023-11-19T02:08:27;98036.13;;;7.14;80.08
22311;BME280;11323;49.610;11.016;2023-11-19T02:13:28;98035.66;;;7.17;79.89
22311;BME280;11323;49.610;11.016;2023-11-19T02:18:32;98040.09;;;7.23;80.19
22311;BME280;11323;49.610;11.016;2023-11-19T02:23:36;98041.72;;;7.24;80.27
22311;BME280;11323;49.610;11.016;2023-11-19T02:28:42;98033.31;;;7.27;79.86
22311;BME280;11323;49.610;11.016;2023-11-19T02:33:43;98046.16;;;7.30;80.09
22311;BME280;11323;49.610;11.016;2023-11-19T02:38:50;98043.50;;;7.30;79.78
22311;BME280;11323;49.610;11.016;2023-11-19T02:44:10;98041.28;;;7.27;80.70
22311;BME280;11323;49.610;11.016;2023-11-19T02:49:13;98035.97;;;7.27;80.09
22311;BME280;11323;49.610;11.016;2023-11-19T02:54:14;98021.16;;;7.31;79.90
22311;BME280;11323;49.610;11.016;2023-11-19T02:59:16;98015.66;;;7.26;80.29
22311;BME280;11323;49.610;11.016;2023-11-19T03:04:27;97996.75;;;7.16;80.33
22311;BME280;11323;49.610;11.016;2023-11-19T03:09:29;97988.75;;;7.16;80.45
22311;BME280;11323;49.610;11.016;2023-11-19T03:14:37;97998.97;;;7.19;80.57
22311;BME280;11323;49.610;11.016;2023-11-19T03:19:41;97969.53;;;7.14;81.08
22311;BME280;11323;49.610;11.016;2023-11-19T03:24:42;97956.63;;;7.11;80.75
22311;BME280;11323;49.610;11.016;2023-11-19T03:29:44;97946.28;;;7.21;80.53
22311;BME280;11323;49.610;11.016;2023-11-19T03:34:45;97882.81;;;7.18;80.67
22311;BME280;11323;49.610;11.016;2023-11-19T03:39:46;97847.91;;;7.08;80.87
22311;BME280;11323;49.610;11.016;2023-11-19T03:44:56;97867.13;;;7.10;81.30
22311;BME280;11323;49.610;11.016;2023-11-19T03:50:05;97897.59;;;7.14;81.23
22311;BME280;11323;49.610;11.016;2023-11-19T03:55:08;97898.91;;;7.23;81.25
22311;BME280;11323;49.610;11.016;2023-11-19T04:00:13;97894.44;;;7.35;81.21
22311;BME280;11323;49.610;11.016;2023-11-19T04:05:15;97893.97;;;7.38;81.12
22311;BME280;11323;49.610;11.016;2023-11-19T04:10:17;97887.75;;;7.44;81.33
22311;BME280;11323;49.610;11.016;2023-11-19T04:15:27;97907.56;;;7.48;80.81
22311;BME280;11323;49.610;11.016;2023-11-19T04:20:29;97910.56;;;7.40;81.19
22311;BME280;11323;49.610;11.016;2023-11-19T04:25:39;97917.75;;;7.51;80.82
22311;BME280;11323;49.610;11.016;2023-11-19T04:30:50;97909.34;;;7.54;81.13
22311;BME280;11323;49.610;11.016;2023-11-19T04:35:53;97917.31;;;7.54;80.85
22311;BME280;11323;49.610;11.016;2023-11-19T04:40:54;97906.78;;;7.59;81.04
22311;BME280;11323;49.610;11.016;2023-11-19T04:46:06;97912.38;;;7.69;80.91
22311;BME280;11323;49.610;11.016;2023-11-19T04:51:07;97906.69;;;7.66;80.85
22311;BME280;11323;49.610;11.016;2023-11-19T04:56:20;97902.03;;;7.61;80.62
22311;BME280;11323;49.610;11.016;2023-11-19T05:01:25;97909.47;;;7.71;80.81
22311;BME280;11323;49.610;11.016;2023-11-19T05:06:47;97897.56;;;7.73;80.49
22311;BME280;11323;49.610;11.016;2023-11-19T05:12:03;97889.66;;;7.78;80.53
22311;BME280;11323;49.610;11.016;2023-11-19T05:17:09;97890.84;;;7.82;80.26
22311;BME280;11323;49.610;11.016;2023-11-19T05:22:13;97877.06;;;7.85;80.01
22311;BME280;11323;49.610;11.016;2023-11-19T05:27:17;97863.25;;;7.88;80.49
22311;BME280;11323;49.610;11.016;2023-11-19T05:32:23;97855.25;;;7.88;80.35
22311;BME280;11323;49.610;11.016;2023-11-19T05:37:24;97857.47;;;7.91;80.43
22311;BME280;11323;49.610;11.016;2023-11-19T05:42:37;97858.06;;;7.93;80.35
22311;BME280;11323;49.610;11.016;2023-11-19T05:47:43;97845.97;;;7.91;80.30
22311;BME280;11323;49.610;11.016;2023-11-19T05:53:05;97856.06;;;8.00;80.54
22311;BME280;11323;49.610;11.016;2023-11-19T05:58:14;97855.00;;;8.01;80.18
22311;BME280;11323;49.610;11.016;2023-11-19T06:03:15;97853.50;;;8.05;80.87
22311;BME280;11323;49.610;11.016;2023-11-19T06:08:18;97856.31;;;8.10;80.24
22311;BME280;11323;49.610;11.016;2023-11-19T06:13:21;97863.25;;;8.11;80.32
22311;BME280;11323;49.610;11.016;2023-11-19T06:18:22;97862.31;;;8.17;80.47
22311;BME280;11323;49.610;11.016;2023-11-19T06:23:26;97858.16;;;8.21;80.69
22311;BME280;11323;49.610;11.016;2023-11-19T06:28:27;97856.53;;;8.20;80.83
22311;BME280;11323;49.610;11.016;2023-11-19T06:33:34;97847.72;;;8.20;80.82
22311;BME280;11323;49.610;11.016;2023-11-19T06:38:46;97851.44;;;8.31;81.24
22311;BME280;11323;49.610;11.016;2023-11-19T06:43:47;97847.25;;;8.35;80.49
22311;BME280;11323;49.610;11.016;2023-11-19T06:48:50;97856.91;;;8.36;80.79
22311;BME280;11323;49.610;11.016;2023-11-19T06:53:52;97847.97;;;8.42;80.53
22311;BME280;11323;49.610;11.016;2023-11-19T06:59:00;97850.06;;;8.40;80.94
22311;BME280;11323;49.610;11.016;2023-11-19T07:04:07;97863.50;;;8.45;81.18
22311;BME280;11323;49.610;11.016;2023-11-19T07:15:29;97843.78;;;8.46;80.63
22311;BME280;11323;49.610;11.016;2023-11-19T07:20:36;97849.13;;;8.46;81.03
22311;BME280;11323;49.610;11.016;2023-11-19T07:25:42;97865.72;;;8.48;80.95
22311;BME280;11323;49.610;11.016;2023-11-19T07:31:03;97863.59;;;8.50;81.26
22311;BME280;11323;49.610;11.016;2023-11-19T07:36:10;97890.63;;;8.65;81.29
22311;BME280;11323;49.610;11.016;2023-11-19T07:41:11;97879.47;;;8.68;80.69
22311;BME280;11323;49.610;11.016;2023-11-19T07:46:22;97874.00;;;8.74;80.88
22311;BME280;11323;49.610;11.016;2023-11-19T07:51:50;97891.53;;;8.82;81.07
22311;BME280;11323;49.610;11.016;2023-11-19T07:57:19;97875.59;;;8.87;80.88
22311;BME280;11323;49.610;11.016;2023-11-19T08:08:28;97873.13;;;8.97;80.67
22311;BME280;11323;49.610;11.016;2023-11-19T08:13:36;97887.63;;;9.01;81.10
22311;BME280;11323;49.610;11.016;2023-11-19T08:18:37;97891.91;;;9.02;80.83
22311;BME280;11323;49.610;11.016;2023-11-19T08:23:44;97859.72;;;9.08;81.46
22311;BME280;11323;49.610;11.016;2023-11-19T08:28:51;97859.22;;;9.23;80.78
22311;BME280;11323;49.610;11.016;2023-11-19T08:34:15;97852.41;;;9.32;81.51
22311;BME280;11323;49.610;11.016;2023-11-19T08:39:17;97850.88;;;9.36;81.25
22311;BME280;11323;49.610;11.016;2023-11-19T08:44:18;97843.38;;;9.50;81.50
22311;BME280;11323;49.610;11.016;2023-11-19T08:49:20;97844.59;;;9.59;81.57
22311;BME280;11323;49.610;11.016;2023-11-19T08:54:21;97850.44;;;9.72;81.43
22311;BME280;11323;49.610;11.016;2023-11-19T08:59:23;97849.63;;;9.88;81.58
22311;BME280;11323;49.610;11.016;2023-11-19T09:04:25;97857.88;;;10.03;81.03
22311;BME280;11323;49.610;11.016;2023-11-19T09:09:26;97864.56;;;10.18;81.09
22311;BME280;11323;49.610;11.016;2023-11-19T09:14:26;97860.09;;;10.23;81.48
22311;BME280;11323;49.610;11.016;2023-11-19T09:19:27;97862.59;;;10.30;81.45
22311;BME280;11323;49.610;11.016;2023-11-19T09:24:28;97884.81;;;10.47;81.31
22311;BME280;11323;49.610;11.016;2023-11-19T09:29:32;97894.16;;;10.66;81.40
22311;BME280;11323;49.610;11.016;2023-11-19T09:34:33;97903.34;;;10.70;81.06
22311;BME280;11323;49.610;11.016;2023-11-19T09:39:34;97892.69;;;10.75;81.07
22311;BME280;11323;49.610;11.016;2023-11-19T09:44:37;97907.81;;;10.86;81.64
22311;BME280;11323;49.610;11.016;2023-11-19T09:49:39;97889.75;;;10.98;81.28
22311;BME280;11323;49.610;11.016;2023-11-19T09:54:40;97887.75;;;11.10;81.31
22311;BME280;11323;49.610;11.016;2023-11-19T09:59:42;97889.38;;;11.11;82.04
22311;BME280;11323;49.610;11.016;2023-11-19T10:04:45;97881.13;;;11.18;82.95
22311;BME280;11323;49.610;11.016;2023-11-19T10:09:47;97882.78;;;11.19;83.56
22311;BME280;11323;49.610;11.016;2023-11-19T10:14:48;97877.41;;;11.19;84.11
22311;BME280;11323;49.610;11.016;2023-11-19T10:19:51;97874.97;;;11.17;84.25
22311;BME280;11323;49.610;11.016;2023-11-19T10:24:52;97877.34;;;11.14;84.77
22311;BME280;11323;49.610;11.016;2023-11-19T10:29:53;97873.34;;;11.16;84.89
22311;BME280;11323;49.610;11.016;2023-11-19T10:35:07;97865.66;;;11.25;84.63
22311;BME280;11323;49.610;11.016;2023-11-19T10:40:09;97850.13;;;11.27;84.60
22311;BME280;11323;49.610;11.016;2023-11-19T10:45:23;97860.63;;;11.28;85.70
22311;BME280;11323;49.610;11.016;2023-11-19T10:50:27;97859.09;;;11.37;84.79
22311;BME280;11323;49.610;11.016;2023-11-19T10:55:33;97858.84;;;11.39;85.41
22311;BME280;11323;49.610;11.016;2023-11-19T11:00:51;97842.47;;;11.40;85.50
22311;BME280;11323;49.610;11.016;2023-11-19T11:05:53;97847.34;;;11.43;85.49
22311;BME280;11323;49.610;11.016;2023-11-19T11:10:56;97828.13;;;11.51;85.37
22311;BME280;11323;49.610;11.016;2023-11-19T11:15:58;97823.88;;;11.55;85.33
22311;BME280;11323;49.610;11.016;2023-11-19T11:21:09;97821.84;;;11.67;85.65
22311;BME280;11323;49.610;11.016;2023-11-19T11:37:23;97809.63;;;11.87;84.92
22311;BME280;11323;49.610;11.016;2023-11-19T11:57:59;97825.13;;;11.74;85.76
22311;BME280;11323;49.610;11.016;2023-11-19T12:03:01;97815.44;;;11.73;85.82
22311;BME280;11323;49.610;11.016;2023-11-19T12:08:04;97812.75;;;11.68;86.45
22311;BME280;11323;49.610;11.016;2023-11-19T12:13:07;97818.69;;;11.75;85.84
22311;BME280;11323;49.610;11.016;2023-11-19T12:18:08;97814.13;;;11.76;86.07
22311;BME280;11323;49.610;11.016;2023-11-19T12:23:09;97806.34;;;11.74;86.56
22311;BME280;11323;49.610;11.016;2023-11-19T12:28:15;97773.03;;;11.70;86.23
22311;BME280;11323;49.610;11.016;2023-11-19T12:33:17;97808.75;;;11.71;86.52
22311;BME280;11323;49.610;11.016;2023-11-19T12:38:23;97796.63;;;11.68;86.09
22311;BME280;11323;49.610;11.016;2023-11-19T12:43:25;97784.75;;;11.64;86.91
22311;BME280;11323;49.610;11.016;2023-11-19T12:48:26;97782.09;;;11.64;86.34
22311;BME280;11323;49.610;11.016;2023-11-19T12:53:27;97787.22;;;11.66;86.39
22311;BME280;11323;49.610;11.016;2023-11-19T12:58:31;97797.69;;;11.67;87.17
22311;BME280;11323;49.610;11.016;2023-11-19T13:03:34;97798.53;;;11.73;86.47
22311;BME280;11323;49.610;11.016;2023-11-19T13:08:45;97780.09;;;11.82;86.44
22311;BME280;11323;49.610;11.016;2023-11-19T13:14:03;97776.34;;;11.83;86.69
22311;BME280;11323;49.610;11.016;2023-11-19T13:19:13;97779.28;;;11.81;86.47
22311;BME280;11323;49.610;11.016;2023-11-19T13:24:14;97776.13;;;11.89;86.06
22311;BME280;11323;49.610;11.016;2023-11-19T13:29:15;97764.28;;;11.85;86.14
22311;BME280;11323;49.610;11.016;2023-11-19T13:34:16;97760.81;;;11.90;86.16
22311;BME280;11323;49.610;11.016;2023-11-19T13:39:17;97752.22;;;11.88;86.61
22311;BME280;11323;49.610;11.016;2023-11-19T13:44:23;97750.59;;;11.87;86.94
22311;BME280;11323;49.610;11.016;2023-11-19T13:49:24;97764.28;;;11.85;86.76
22311;BME280;11323;49.610;11.016;2023-11-19T13:54:25;97760.25;;;11.83;87.06
22311;BME280;11323;49.610;11.016;2023-11-19T13:59:25;97764.50;;;11.78;86.73
22311;BME280;11323;49.610;11.016;2023-11-19T14:04:27;97749.44;;;11.72;86.69
22311;BME280;11323;49.610;11.016;2023-11-19T14:09:27;97762.03;;;11.67;87.39
22311;BME280;11323;49.610;11.016;2023-11-19T14:14:29;97759.47;;;11.55;87.27
22311;BME280;11323;49.610;11.016;2023-11-19T14:19:30;97770.16;;;11.50;86.90
22311;BME280;11323;49.610;11.016;2023-11-19T14:24:31;97774.97;;;11.48;87.46
22311;BME280;11323;49.610;11.016;2023-11-19T14:29:32;97771.25;;;11.49;87.66
22311;BME280;11323;49.610;11.016;2023-11-19T14:34:34;97765.31;;;11.47;87.35
22311;BME280;11323;49.610;11.016;2023-11-19T14:39:35;97753.75;;;11.42;87.50
22311;BME280;11323;49.610;11.016;2023-11-19T14:44:36;97749.41;;;11.36;88.09
22311;BME280;11323;49.610;11.016;2023-11-19T14:49:37;97749.09;;;11.32;88.25
22311;BME280;11323;49.610;11.016;2023-11-19T14:54:38;97753.66;;;11.32;87.95
22311;BME280;11323;49.610;11.016;2023-11-19T14:59:39;97754.97;;;11.29;88.53
22311;BME280;11323;49.610;11.016;2023-11-19T15:04:40;97761.97;;;11.30;88.36
22311;BME280;11323;49.610;11.016;2023-11-19T15:09:42;97763.00;;;11.29;87.97
22311;BME280;11323;49.610;11.016;2023-11-19T15:14:42;97765.69;;;11.29;88.14
22311;BME280;11323;49.610;11.016;2023-11-19T15:19:43;97764.56;;;11.25;87.67
22311;BME280;11323;49.610;11.016;2023-11-19T15:24:46;97776.38;;;11.24;88.39
22311;BME280;11323;49.610;11.016;2023-11-19T15:29:47;97781.97;;;11.23;88.52
22311;BME280;11323;49.610;11.016;2023-11-19T15:34:48;97778.72;;;11.21;88.41
22311;BME280;11323;49.610;11.016;2023-11-19T15:39:49;97771.50;;;11.21;87.85
22311;BME280;11323;49.610;11.016;2023-11-19T15:44:52;97767.22;;;11.20;88.57
22311;BME280;11323;49.610;11.016;2023-11-19T15:49:52;97777.94;;;11.20;88.96
22311;BME280;11323;49.610;11.016;2023-11-19T15:54:53;97780.06;;;11.18;88.89
22311;BME280;11323;49.610;11.016;2023-11-19T15:59:54;97785.91;;;11.15;88.85
22311;BME280;11323;49.610;11.016;2023-11-19T16:04:55;97786.72;;;11.11;88.73
22311;BME280;11323;49.610;11.016;2023-11-19T16:09:56;97794.97;;;11.09;88.85
22311;BME280;11323;49.610;11.016;2023-11-19T16:14:56;97802.47;;;11.07;88.88
22311;BME280;11323;49.610;11.016;2023-11-19T16:19:57;97798.13;;;11.01;88.79
22311;BME280;11323;49.610;11.016;2023-11-19T16:24:58;97802.31;;;10.92;89.22
22311;BME280;11323;49.610;11.016;2023-11-19T16:29:59;97805.44;;;10.84;89.31
22311;BME280;11323;49.610;11.016;2023-11-19T16:35:01;97798.34;;;10.73;89.48
22311;BME280;11323;49.610;11.016;2023-11-19T16:40:02;97808.13;;;10.62;88.80
22311;BME280;11323;49.610;11.016;2023-11-19T16:45:07;97799.22;;;10.57;89.33
22311;BME280;11323;49.610;11.016;2023-11-19T16:50:10;97806.47;;;10.56;89.81
22311;BME280;11323;49.610;11.016;2023-11-19T16:55:12;97805.06;;;10.54;89.49
22311;BME280;11323;49.610;11.016;2023-11-19T17:00:13;97810.38;;;10.49;89.81
22311;BME280;11323;49.610;11.016;2023-11-19T17:05:14;97831.72;;;10.44;89.57
22311;BME280;11323;49.610;11.016;2023-11-19T17:10:15;97827.34;;;10.38;89.52
22311;BME280;11323;49.610;11.016;2023-11-19T17:15:16;97822.00;;;10.38;89.95
22311;BME280;11323;49.610;11.016;2023-11-19T17:20:17;97819.88;;;10.40;90.21
22311;BME280;11323;49.610;11.016;2023-11-19T17:25:18;97829.00;;;10.39;90.04
22311;BME280;11323;49.610;11.016;2023-11-19T17:30:19;97828.34;;;10.32;89.65
22311;BME280;11323;49.610;11.016;2023-11-19T17:35:20;97837.44;;;10.31;89.88
22311;BME280;11323;49.610;11.016;2023-11-19T17:40:22;97845.97;;;10.28;89.76
22311;BME280;11323;49.610;11.016;2023-11-19T17:45:24;97842.66;;;10.21;90.38
22311;BME280;11323;49.610;11.016;2023-11-19T17:50:25;97843.63;;;10.15;90.37
22311;BME280;11323;49.610;11.016;2023-11-19T17:55:26;97833.06;;;10.08;90.31
22311;BME280;11323;49.610;11.016;2023-11-19T18:00:27;97857.88;;;10.03;90.19
22311;BME280;11323;49.610;11.016;2023-11-19T18:05:28;97853.81;;;10.01;90.53
22311;BME280;11323;49.610;11.016;2023-11-19T18:10:29;97837.47;;;9.97;90.21
22311;BME280;11323;49.610;11.016;2023-11-19T18:15:29;97845.72;;;9.96;90.39
22311;BME280;11323;49.610;11.016;2023-11-19T18:20:30;97846.63;;;10.01;90.62
22311;BME280;11323;49.610;11.016;2023-11-19T18:25:31;97847.50;;;10.07;90.51
22311;BME280;11323;49.610;11.016;2023-11-19T18:30:32;97861.69;;;10.08;90.40
22311;BME280;11323;49.610;11.016;2023-11-19T18:35:33;97861.13;;;10.06;90.64
22311;BME280;11323;49.610;11.016;2023-11-19T18:40:34;97863.56;;;10.07;90.50
22311;BME280;11323;49.610;11.016;2023-11-19T18:45:35;97884.72;;;10.09;90.89
22311;BME280;11323;49.610;11.016;2023-11-19T18:50:36;97910.13;;;10.06;90.81
22311;BME280;11323;49.610;11.016;2023-11-19T18:55:36;97880.44;;;10.08;90.85
22311;BME280;11323;49.610;11.016;2023-11-19T19:00:38;97891.75;;;10.10;90.72
22311;BME280;11323;49.610;11.016;2023-11-19T19:05:39;97900.91;;;10.14;91.29
22311;BME280;11323;49.610;11.016;2023-11-19T19:10:40;97912.19;;;10.16;90.99
22311;BME280;11323;49.610;11.016;2023-11-19T19:15:41;97915.34;;;10.13;91.26
22311;BME280;11323;49.610;11.016;2023-11-19T19:20:41;97914.16;;;10.09;90.94
22311;BME280;11323;49.610;11.016;2023-11-19T19:25:42;97910.28;;;9.99;90.79
22311;BME280;11323;49.610;11.016;2023-11-19T19:30:43;97904.84;;;9.94;90.78
22311;BME280;11323;49.610;11.016;2023-11-19T19:35:45;97921.38;;;9.91;90.94
22311;BME280;11323;49.610;11.016;2023-11-19T19:40:46;97917.56;;;9.87;90.96
22311;BME280;11323;49.610;11.016;2023-11-19T19:45:46;97917.09;;;9.90;91.26
22311;BME280;11323;49.610;11.016;2023-11-19T19:50:47;97927.78;;;9.90;91.02
22311;BME280;11323;49.610;11.016;2023-11-19T19:55:48;97915.38;;;9.84;91.18
22311;BME280;11323;49.610;11.016;2023-11-19T20:00:50;97921.13;;;9.76;91.27
22311;BME280;11323;49.610;11.016;2023-11-19T20:05:56;97919.09;;;9.67;91.08
22311;BME280;11323;49.610;11.016;2023-11-19T20:10:58;97920.28;;;9.59;91.23
22311;BME280;11323;49.610;11.016;2023-11-19T20:15:59;97912.16;;;9.54;91.39
22311;BME280;11323;49.610;11.016;2023-11-19T20:21:00;97930.56;;;9.51;91.53
22311;BME280;11323;49.610;11.016;2023-11-19T20:26:04;97935.56;;;9.47;91.42
22311;BME280;11323;49.610;11.016;2023-11-19T20:31:06;97934.53;;;9.48;91.48
22311;BME280;11323;49.610;11.016;2023-11-19T20:36:10;97943.72;;;9.41;91.62
22311;BME280;11323;49.610;11.016;2023-11-19T20:41:11;97948.13;;;9.47;91.82
22311;BME280;11323;49.610;11.016;2023-11-19T20:46:12;97937.44;;;9.47;91.92
22311;BME280;11323;49.610;11.016;2023-11-19T20:51:15;97936.63;;;9.46;91.80
22311;BME280;11323;49.610;11.016;2023-11-19T20:56:16;97937.91;;;9.44;92.06
22311;BME280;11323;49.610;11.016;2023-11-19T21:01:20;97937.09;;;9.43;91.65
22311;BME280;11323;49.610;11.016;2023-11-19T21:06:21;97927.69;;;9.41;91.92
22311;BME280;11323;49.610;11.016;2023-11-19T21:11:24;97932.13;;;9.35;91.66
22311;BME280;11323;49.610;11.016;2023-11-19T21:16:25;97933.19;;;9.34;91.92
22311;BME280;11323;49.610;11.016;2023-11-19T21:21:29;97928.53;;;9.30;92.19
22311;BME280;11323;49.610;11.016;2023-11-19T21:26:30;97924.41;;;9.22;91.60
22311;BME280;11323;49.610;11.016;2023-11-19T21:31:32;97924.06;;;9.19;92.22
22311;BME280;11323;49.610;11.016;2023-11-19T21:36:32;97926.16;;;9.17;92.29
22311;BME280;11323;49.610;11.016;2023-11-19T21:41:33;97909.22;;;9.11;91.89
22311;BME280;11323;49.610;11.016;2023-11-19T21:46:34;97920.38;;;9.08;91.97
22311;BME280;11323;49.610;11.016;2023-11-19T21:51:42;97915.59;;;9.10;92.35
22311;BME280;11323;49.610;11.016;2023-11-19T21:56:43;97914.66;;;9.16;92.57
22311;BME280;11323;49.610;11.016;2023-11-19T22:01:43;97915.78;;;9.20;92.24
22311;BME280;11323;49.610;11.016;2023-11-19T22:06:45;97931.38;;;9.23;92.63
22311;BME280;11323;49.610;11.016;2023-11-19T22:11:46;97925.53;;;9.26;92.18
22311;BME280;11323;49.610;11.016;2023-11-19T22:16:50;97929.94;;;9.32;92.61
22311;BME280;11323;49.610;11.016;2023-11-19T22:21:50;97929.44;;;9.35;91.93
22311;BME280;11323;49.610;11.016;2023-11-19T22:26:52;97933.84;;;9.41;92.65
22311;BME280;11323;49.610;11.016;2023-11-19T22:31:52;97931.28;;;9.46;92.64
22311;BME280;11323;49.610;11.016;2023-11-19T22:36:53;97934.03;;;9.51;92.38
22311;BME280;11323;49.610;11.016;2023-11-19T22:41:55;97927.66;;;9.52;92.14
22311;BME280;11323;49.610;11.016;2023-11-19T22:46:56;97929.84;;;9.55;92.11
22311;BME280;11323;49.610;11.016;2023-11-19T22:51:57;97927.75;;;9.57;92.16
22311;BME280;11323;49.610;11.016;2023-11-19T22:56:58;97916.53;;;9.60;91.84
22311;BME280;11323;49.610;11.016;2023-11-19T23:02:02;97913.97;;;9.65;91.86
22311;BME280;11323;49.610;11.016;2023-11-19T23:07:03;97920.47;;;9.69;91.86
22311;BME280;11323;49.610;11.016;2023-11-19T23:12:04;97912.22;;;9.71;92.24
22311;BME280;11323;49.610;11.016;2023-11-19T23:17:07;97897.44;;;9.68;91.66
22311;BME280;11323;49.610;11.016;2023-11-19T23:22:09;97901.41;;;9.66;91.99
22311;BME280;11323;49.610;11.016;2023-11-19T23:27:13;97913.25;;;9.70;91.84
22311;BME280;11323;49.610;11.016;2023-11-19T23:32:17;97902.41;;;9.76;91.69
22311;BME280;11323;49.610;11.016;2023-11-19T23:37:18;97900.03;;;9.80;91.72
22311;BME280;11323;49.610;11.016;2023-11-19T23:42:21;97894.69;;;9.80;91.51
22311;BME280;11323;49.610;11.016;2023-11-19T23:47:22;97895.84;;;9.84;91.72
22311;BME280;11323;49.610;11.016;2023-11-19T23:52:23;97892.91;;;9.85;91.79
22311;BME280;11323;49.610;11.016;2023-11-19T23:57:25;97887.50;;;9.80;92.11
